createdAt,value
2019-05-10T00:02:03.812Z,40.52
2019-05-10T00:04:52.305Z,28.12
2019-05-10T00:07:40.559Z,27.65
2019-05-10T00:10:09.880Z,32.42
2019-05-10T00:12:45.094Z,36.55
2019-05-10T00:15:16.727Z,32.13
2019-05-10T00:17:46.990Z,39.70
2019-05-10T00:20:17.391Z,29.32
2019-05-10T00:22:47.595Z,29.50
2019-05-10T00:25:17.797Z,31.65
2019-05-10T00:27:48.041Z,32.08
2019-05-10T00:30:18.290Z,30.82
2019-05-10T00:32:48.586Z,30.57
2019-05-10T00:35:18.748Z,34.48
2019-05-10T00:37:49.040Z,36.58
2019-05-10T00:40:19.250Z,33.75
2019-05-10T00:42:49.506Z,32.38
2019-05-10T00:45:25.274Z,33.90
2019-05-10T00:47:55.366Z,32.95
2019-05-10T00:50:25.579Z,26.17
2019-05-10T00:52:56.114Z,37.35
2019-05-10T00:55:26.210Z,29.42
2019-05-10T00:57:56.414Z,30.32
2019-05-10T01:00:26.947Z,31.05
2019-05-10T01:02:57.340Z,29.20
2019-05-10T01:05:27.613Z,31.75
2019-05-10T01:07:57.769Z,30.17
2019-05-10T01:10:28.187Z,24.30
2019-05-10T01:12:58.456Z,30.65
2019-05-10T01:15:28.919Z,34.25
2019-05-10T01:17:59.995Z,71.45
2019-05-10T01:20:30.308Z,110.78
2019-05-10T01:23:00.565Z,157.78
2019-05-10T01:25:35.036Z,78.90
2019-05-10T01:28:02.916Z,82.17
2019-05-10T01:30:33.030Z,91.97
2019-05-10T01:33:03.532Z,99.15
2019-05-10T01:35:33.991Z,108.12
2019-05-10T01:38:04.284Z,108.65
2019-05-10T01:40:34.381Z,92.37
2019-05-10T01:43:04.557Z,124.15
2019-05-10T01:45:34.703Z,106.43
2019-05-10T01:48:05.169Z,105.92
2019-05-10T01:50:35.351Z,94.32
2019-05-10T01:53:05.346Z,96.50
2019-05-10T01:55:50.813Z,98.05
2019-05-10T01:58:07.678Z,84.20
2019-05-10T02:00:37.581Z,84.13
2019-05-10T02:03:08.033Z,94.22
2019-05-10T02:05:38.049Z,94.92
2019-05-10T02:08:08.364Z,91.92
2019-05-10T02:10:38.458Z,90.87
2019-05-10T02:13:08.722Z,117.50
2019-05-10T02:15:38.939Z,106.55
2019-05-10T02:18:10.092Z,108.27
2019-05-10T02:20:42.866Z,99.42
2019-05-10T02:23:12.848Z,104.05
2019-05-10T02:25:43.146Z,88.45
2019-05-10T02:28:13.075Z,95.07
2019-05-10T02:30:43.510Z,75.78
2019-05-10T02:33:13.793Z,75.95
2019-05-10T02:35:44.082Z,69.42
2019-05-10T02:38:15.030Z,80.38
2019-05-10T02:40:45.138Z,84.62
2019-05-10T02:43:15.326Z,85.25
2019-05-10T02:45:45.697Z,76.55
2019-05-10T02:48:15.909Z,77.27
2019-05-10T02:50:46.309Z,66.07
2019-05-10T02:53:16.637Z,72.97
2019-05-10T02:55:47.281Z,74.72
2019-05-10T02:58:17.648Z,86.78
2019-05-10T03:00:50.289Z,82.70
2019-05-10T03:03:23.400Z,101.42
2019-05-10T03:05:54.856Z,63.33
2019-05-10T03:08:25.414Z,54.13
2019-05-10T03:10:57.885Z,61.02
2019-05-10T03:13:31.748Z,59.53
2019-05-10T03:16:03.443Z,48.68
2019-05-10T03:18:33.700Z,51.90
2019-05-10T03:21:05.652Z,44.33
2019-05-10T03:23:35.999Z,48.28
2019-05-10T03:26:06.094Z,52.05
2019-05-10T03:28:36.429Z,43.58
2019-05-10T03:31:06.869Z,48.45
2019-05-10T03:33:37.369Z,44.48
2019-05-10T03:36:08.582Z,45.25
2019-05-10T03:38:39.187Z,50.45
2019-05-10T03:41:09.555Z,44.67
2019-05-10T03:43:39.791Z,43.70
2019-05-10T03:46:09.893Z,42.25
2019-05-10T03:48:40.006Z,51.02
2019-05-10T03:51:10.007Z,53.58
2019-05-10T03:53:40.328Z,44.65
2019-05-10T03:56:10.544Z,46.33
2019-05-10T03:58:40.494Z,49.65
2019-05-10T04:01:10.553Z,48.95
2019-05-10T04:03:40.569Z,49.00
2019-05-10T04:06:10.651Z,51.20
2019-05-10T04:08:40.660Z,47.13
2019-05-10T04:11:16.818Z,43.35
2019-05-10T04:13:47.053Z,39.63
2019-05-10T04:16:17.494Z,39.73
2019-05-10T04:18:47.471Z,39.40
2019-05-10T04:21:17.373Z,40.50
2019-05-10T04:23:47.622Z,37.63
2019-05-10T04:26:17.799Z,41.02
2019-05-10T04:28:47.949Z,44.40
2019-05-10T04:31:18.200Z,49.45
2019-05-10T04:33:49.450Z,44.10
2019-05-10T04:36:19.564Z,47.30
2019-05-10T04:38:49.570Z,44.88
2019-05-10T04:41:19.785Z,45.10
2019-05-10T04:43:49.866Z,52.10
2019-05-10T04:46:21.283Z,44.75
2019-05-10T04:48:54.348Z,48.25
2019-05-10T04:51:24.384Z,54.93
2019-05-10T04:53:54.450Z,47.80
2019-05-10T04:56:24.356Z,50.00
2019-05-10T04:58:54.461Z,49.50
2019-05-10T05:01:24.666Z,44.03
2019-05-10T05:03:54.811Z,52.20
2019-05-10T05:06:25.390Z,49.10
2019-05-10T05:08:55.517Z,47.23
2019-05-10T05:11:26.516Z,50.45
2019-05-10T05:13:56.557Z,40.78
2019-05-10T05:16:26.814Z,44.50
2019-05-10T05:18:56.768Z,40.28
2019-05-10T05:21:27.126Z,42.40
2019-05-10T05:23:57.358Z,40.08
2019-05-10T05:26:27.298Z,37.63
2019-05-10T05:28:57.360Z,41.40
2019-05-10T05:31:27.306Z,37.88
2019-05-10T05:33:59.179Z,37.15
2019-05-10T05:36:29.399Z,38.48
2019-05-10T05:39:00.772Z,38.33
2019-05-10T05:41:32.063Z,39.88
2019-05-10T05:44:02.499Z,37.95
2019-05-10T05:46:32.810Z,37.98
2019-05-10T05:49:02.946Z,40.08
2019-05-10T05:51:33.092Z,38.08
2019-05-10T05:54:04.343Z,37.93
2019-05-10T05:56:34.744Z,38.55
2019-05-10T05:59:08.820Z,40.43
2019-05-10T06:01:38.573Z,41.50
2019-05-10T06:04:12.690Z,42.58
2019-05-10T06:06:42.060Z,42.98
2019-05-10T06:09:12.172Z,40.00
2019-05-10T06:11:42.116Z,41.02
2019-05-10T06:14:12.859Z,37.78
2019-05-10T06:16:45.211Z,41.65
2019-05-10T06:19:20.576Z,38.42
2019-05-10T06:21:46.995Z,36.20
2019-05-10T06:24:17.241Z,40.85
2019-05-10T06:26:47.629Z,38.48
2019-05-10T06:29:19.733Z,38.70
2019-05-10T06:31:49.491Z,44.20
2019-05-10T06:34:19.617Z,42.70
2019-05-10T06:36:49.619Z,44.80
2019-05-10T06:39:19.725Z,43.25
2019-05-10T06:41:55.837Z,46.63
2019-05-10T06:44:24.947Z,45.63
2019-05-10T06:46:53.699Z,45.40
2019-05-10T06:49:23.892Z,40.78
2019-05-10T06:51:54.301Z,46.20
2019-05-10T06:54:24.483Z,46.10
2019-05-10T06:56:54.562Z,50.12
2019-05-10T06:59:26.205Z,48.48
2019-05-10T07:01:56.559Z,49.67
2019-05-10T07:04:26.740Z,50.35
2019-05-10T07:06:56.746Z,48.48
2019-05-10T07:09:27.143Z,48.87
2019-05-10T07:11:57.372Z,49.80
2019-05-10T07:14:27.842Z,48.10
2019-05-10T07:17:02.557Z,48.20
2019-05-10T07:19:35.050Z,48.50
2019-05-10T07:24:32.625Z,48.52
2019-05-10T07:27:05.726Z,47.65
2019-05-10T07:29:41.910Z,48.83
2019-05-10T07:32:07.311Z,46.98
2019-05-10T07:34:37.652Z,45.63
2019-05-10T07:37:07.893Z,46.85
2019-05-10T07:39:38.639Z,45.58
2019-05-10T07:42:09.222Z,44.05
2019-05-10T07:44:41.642Z,43.87
2019-05-10T07:49:40.799Z,42.83
2019-05-10T07:52:10.964Z,43.10
2019-05-10T07:54:47.732Z,42.38
2019-05-10T07:57:18.760Z,43.10
2019-05-10T07:59:51.063Z,43.45
2019-05-10T08:02:21.246Z,42.73
2019-05-10T08:04:53.710Z,41.98
2019-05-10T08:09:52.800Z,38.75
2019-05-10T08:12:22.882Z,38.53
2019-05-10T08:14:53.763Z,38.08
2019-05-10T08:17:23.850Z,35.30
2019-05-10T08:19:54.171Z,35.60
2019-05-10T08:22:24.247Z,38.58
2019-05-10T08:24:56.297Z,38.25
2019-05-10T08:27:26.409Z,39.70
2019-05-10T08:30:17.844Z,37.13
2019-05-10T08:32:34.551Z,35.58
2019-05-10T08:35:05.692Z,35.63
2019-05-10T08:37:38.355Z,34.58
2019-05-10T08:40:09.054Z,35.20
2019-05-10T08:42:45.233Z,36.23
2019-05-10T08:45:12.587Z,40.90
2019-05-10T08:47:44.595Z,41.15
2019-05-10T08:50:42.522Z,40.08
2019-05-10T08:52:56.965Z,35.52
2019-05-10T08:55:27.432Z,39.58
2019-05-10T08:58:02.802Z,38.38
2019-05-10T09:00:48.883Z,39.70
2019-05-10T09:03:09.543Z,37.50
2019-05-10T09:05:40.019Z,41.00
2019-05-10T09:08:19.550Z,41.00
2019-05-10T09:10:45.442Z,36.40
2019-05-10T09:13:15.627Z,35.13
2019-05-10T09:15:52.074Z,33.20
2019-05-10T09:18:18.146Z,24.37
2019-05-10T09:20:54.471Z,26.82
2019-05-10T09:23:27.170Z,30.90
2019-05-10T09:26:01.835Z,27.80
2019-05-10T09:28:29.437Z,28.35
2019-05-10T09:31:17.231Z,31.75
2019-05-10T09:33:34.109Z,30.72
2019-05-10T09:36:04.420Z,31.50
2019-05-10T09:38:39.088Z,22.93
2019-05-10T09:41:06.561Z,22.85
2019-05-10T09:43:47.978Z,24.20
2019-05-10T09:46:14.055Z,22.48
2019-05-10T09:48:45.106Z,25.12
2019-05-10T09:51:19.003Z,26.20
2019-05-10T09:53:48.647Z,27.80
2019-05-10T09:56:20.323Z,25.77
2019-05-10T09:58:50.430Z,22.57
2019-05-10T10:01:28.048Z,23.38
2019-05-10T10:04:02.121Z,22.13
2019-05-10T10:06:31.519Z,22.95
2019-05-10T10:09:10.894Z,24.05
2019-05-10T10:11:58.128Z,23.35
2019-05-10T10:14:28.351Z,19.35
2019-05-10T10:17:03.366Z,20.17
2019-05-10T10:19:37.599Z,19.07
2019-05-10T10:22:11.110Z,19.80
2019-05-10T10:24:41.322Z,18.85
2019-05-10T10:27:11.485Z,21.30
2019-05-10T10:29:42.337Z,19.40
2019-05-10T10:32:30.400Z,18.32
2019-05-10T10:34:58.466Z,18.25
2019-05-10T10:37:49.375Z,18.37
2019-05-10T10:40:28.022Z,19.82
2019-05-10T10:45:53.026Z,20.32
2019-05-10T10:48:28.307Z,18.57
2019-05-10T10:50:58.858Z,21.07
2019-05-10T10:53:29.190Z,22.73
2019-05-10T10:58:57.981Z,25.02
2019-05-10T11:01:45.683Z,24.40
2019-05-10T11:04:03.632Z,23.52
2019-05-10T11:06:35.342Z,23.02
2019-05-10T11:09:16.797Z,21.97
2019-05-10T11:11:47.531Z,21.05
2019-05-10T11:14:20.736Z,20.30
2019-05-10T11:19:44.212Z,19.65
2019-05-10T11:22:16.536Z,21.40
2019-05-10T11:25:09.070Z,20.70
2019-05-10T11:27:47.634Z,22.00
2019-05-10T11:30:21.345Z,20.27
2019-05-10T11:32:51.842Z,19.02
2019-05-10T11:35:28.460Z,21.15
2019-05-10T11:37:55.325Z,21.17
2019-05-10T11:40:31.996Z,19.17
2019-05-10T11:43:01.477Z,19.23
2019-05-10T11:45:35.262Z,18.52
2019-05-10T11:48:07.371Z,17.05
2019-05-10T11:50:41.100Z,18.85
2019-05-10T11:53:13.227Z,18.85
2019-05-10T11:55:44.237Z,17.65
2019-05-10T11:58:15.061Z,15.48
2019-05-10T12:00:45.247Z,14.85
2019-05-10T12:03:22.373Z,14.47
2019-05-10T12:06:04.567Z,16.40
2019-05-10T12:08:29.313Z,15.70
2019-05-10T12:13:38.047Z,13.53
2019-05-10T12:16:12.343Z,12.20
2019-05-10T12:19:00.778Z,14.58
2019-05-10T12:21:17.073Z,13.22
2019-05-10T12:23:51.955Z,10.75
2019-05-10T12:26:15.571Z,16.05
2019-05-10T12:29:02.574Z,9.88
2019-05-10T12:31:32.906Z,9.93
2019-05-10T12:34:08.904Z,9.68
2019-05-10T12:36:37.068Z,25.02
2019-05-10T12:39:11.560Z,8.93
2019-05-10T12:41:47.725Z,8.93
2019-05-10T12:44:17.934Z,8.90
2019-05-10T12:46:50.994Z,11.85
2019-05-10T12:49:25.706Z,16.30
2019-05-10T12:51:59.826Z,8.48
2019-05-10T12:54:31.775Z,8.58
2019-05-10T12:57:05.005Z,15.85
2019-05-10T12:59:36.642Z,13.20
2019-05-10T13:02:11.255Z,7.15
2019-05-10T13:04:47.075Z,7.00
2019-05-10T13:07:16.417Z,7.45
2019-05-10T13:09:49.911Z,8.35
2019-05-10T13:12:18.713Z,7.83
2019-05-10T13:14:54.801Z,6.92
2019-05-10T13:17:27.076Z,6.75
2019-05-10T13:19:58.352Z,6.33
2019-05-10T13:22:37.169Z,5.83
2019-05-10T13:27:29.970Z,5.70
2019-05-10T13:30:05.416Z,5.87
2019-05-10T13:32:36.372Z,5.40
2019-05-10T13:35:07.214Z,5.90
2019-05-10T13:37:37.788Z,5.80
2019-05-10T13:40:08.393Z,5.60
2019-05-10T13:42:43.089Z,5.80
2019-05-10T13:45:10.766Z,5.75
2019-05-10T13:47:40.932Z,5.50
2019-05-10T13:50:11.390Z,5.60
2019-05-10T13:52:41.675Z,6.17
2019-05-10T13:55:12.022Z,5.33
2019-05-10T13:57:42.128Z,6.05
2019-05-10T14:00:12.871Z,6.22
2019-05-10T14:02:43.153Z,6.37
2019-05-10T14:05:17.697Z,6.25
2019-05-10T14:10:18.307Z,6.50
2019-05-10T14:12:48.512Z,6.35
2019-05-10T14:15:19.231Z,6.33
2019-05-10T14:17:49.558Z,6.47
2019-05-10T14:20:25.255Z,6.08
2019-05-10T14:25:29.528Z,6.47
2019-05-10T14:27:56.982Z,6.97
2019-05-10T14:30:29.042Z,6.75
2019-05-10T14:33:08.726Z,5.87
2019-05-10T14:35:37.438Z,5.12
2019-05-10T14:38:10.365Z,6.03
2019-05-10T14:40:39.691Z,5.20
2019-05-10T14:43:09.926Z,5.90
2019-05-10T14:45:46.522Z,5.08
2019-05-10T14:48:27.683Z,6.65
2019-05-10T14:51:02.994Z,5.58
2019-05-10T14:56:08.145Z,6.53
2019-05-10T14:58:36.838Z,5.42
2019-05-10T15:01:10.043Z,4.53
2019-05-10T15:03:45.478Z,5.70
2019-05-10T15:06:11.878Z,4.55
2019-05-10T15:08:41.983Z,4.42
2019-05-10T15:11:12.182Z,5.00
2019-05-10T15:13:42.485Z,4.90
2019-05-10T15:16:25.705Z,4.92
2019-05-10T15:18:49.736Z,6.03
2019-05-10T15:21:21.361Z,5.60
2019-05-10T15:23:55.359Z,5.67
2019-05-10T15:26:26.195Z,5.92
2019-05-10T15:28:56.487Z,5.20
2019-05-10T15:31:29.132Z,4.92
2019-05-10T15:34:04.828Z,4.85
2019-05-10T15:36:32.074Z,5.10
2019-05-10T15:39:10.233Z,6.25
2019-05-10T15:44:18.805Z,6.22
2019-05-10T15:46:48.731Z,7.65
2019-05-10T15:49:24.416Z,5.70
2019-05-10T15:52:15.178Z,5.78
2019-05-10T15:54:27.922Z,5.90
2019-05-10T15:57:02.514Z,5.08
2019-05-10T15:59:32.734Z,3.90
2019-05-10T16:02:02.643Z,4.58
2019-05-10T16:04:36.791Z,6.62
2019-05-10T16:07:09.314Z,3.85
2019-05-10T16:09:39.328Z,3.40
2019-05-10T16:12:17.327Z,3.15
2019-05-10T16:14:49.348Z,3.58
2019-05-10T16:17:23.746Z,4.25
2019-05-10T16:19:59.786Z,3.92
2019-05-10T16:22:30.349Z,4.80
2019-05-10T16:25:02.450Z,5.20
2019-05-10T16:27:33.920Z,6.47
2019-05-10T16:32:36.304Z,6.05
2019-05-10T16:35:12.925Z,6.10
2019-05-10T16:37:47.450Z,6.55
2019-05-10T16:40:18.437Z,7.28
2019-05-10T16:42:49.539Z,8.38
2019-05-10T16:45:20.579Z,9.37
2019-05-10T16:48:54.191Z,6.78
2019-05-10T16:51:31.784Z,6.47
2019-05-10T16:54:01.751Z,6.10
2019-05-10T16:56:32.086Z,6.37
2019-05-10T16:59:02.161Z,9.78
2019-05-10T17:01:33.650Z,10.90
2019-05-10T17:04:03.962Z,11.45
2019-05-10T17:06:35.351Z,16.45
2019-05-10T17:11:41.620Z,9.80
2019-05-10T17:14:12.644Z,9.98
2019-05-10T17:19:12.309Z,8.33
2019-05-10T17:21:42.597Z,8.70
2019-05-10T17:24:12.482Z,9.48
2019-05-10T17:26:42.801Z,9.75
2019-05-10T17:29:14.736Z,13.30
2019-05-10T17:31:46.204Z,11.63
2019-05-10T17:34:27.571Z,9.13
2019-05-10T17:36:51.847Z,9.33
2019-05-10T17:39:25.723Z,12.15
2019-05-10T17:44:23.253Z,10.95
2019-05-10T17:46:57.434Z,10.98
2019-05-10T17:49:27.626Z,11.05
2019-05-10T17:51:58.500Z,9.93
2019-05-10T17:54:33.696Z,11.43
2019-05-10T17:57:02.298Z,11.10
2019-05-10T18:02:02.430Z,11.43
2019-05-10T18:04:32.879Z,12.82
2019-05-10T18:07:03.888Z,13.28
2019-05-10T18:09:34.109Z,13.20
2019-05-10T18:12:04.650Z,10.00
2019-05-10T18:14:36.056Z,9.60
2019-05-10T18:17:07.285Z,9.75
2019-05-10T18:19:38.167Z,10.58
2019-05-10T18:22:08.485Z,10.48
2019-05-10T18:24:42.254Z,21.07
2019-05-10T18:27:11.084Z,43.00
2019-05-10T18:29:41.208Z,53.65
2019-05-10T18:32:11.317Z,29.23
2019-05-10T18:34:41.464Z,22.35
2019-05-10T18:37:15.909Z,18.90
2019-05-10T18:39:47.352Z,15.72
2019-05-10T18:42:18.773Z,9.83
2019-05-10T18:44:51.865Z,10.40
2019-05-10T18:47:18.934Z,9.73
2019-05-10T18:49:50.203Z,10.45
2019-05-10T18:52:20.313Z,13.68
2019-05-10T18:54:50.485Z,12.03
2019-05-10T18:57:26.559Z,10.38
2019-05-10T19:00:01.309Z,10.25
2019-05-10T19:02:36.020Z,10.43
2019-05-10T19:05:14.936Z,9.73
2019-05-10T19:08:02.723Z,15.28
2019-05-10T19:10:24.737Z,8.45
2019-05-10T19:13:23.700Z,8.65
2019-05-10T19:15:40.425Z,12.90
2019-05-10T19:18:11.253Z,9.95
2019-05-10T19:20:42.246Z,10.13
2019-05-10T19:23:19.571Z,9.00
2019-05-10T19:25:51.667Z,9.30
2019-05-10T19:30:52.862Z,41.68
2019-05-10T19:33:29.608Z,15.20
2019-05-10T19:36:00.561Z,9.50
2019-05-10T19:38:30.771Z,9.53
2019-05-10T19:41:02.272Z,10.93
2019-05-10T19:43:32.374Z,12.63
2019-05-10T19:46:02.456Z,12.03
2019-05-10T19:48:35.655Z,12.43
2019-05-10T19:51:09.787Z,25.43
2019-05-10T19:53:42.319Z,11.80
2019-05-10T19:56:08.508Z,10.63
2019-05-10T19:58:38.787Z,11.50
2019-05-10T20:01:09.248Z,10.55
2019-05-10T20:03:40.407Z,10.10
2019-05-10T20:06:10.620Z,10.80
2019-05-10T20:08:40.702Z,10.72
2019-05-10T20:11:15.602Z,9.30
2019-05-10T20:13:48.954Z,11.00
2019-05-10T20:16:19.169Z,10.53
2019-05-10T20:18:49.345Z,11.03
2019-05-10T20:21:19.397Z,12.30
2019-05-10T20:23:49.761Z,10.78
2019-05-10T20:26:19.680Z,12.53
2019-05-10T20:28:49.812Z,11.28
2019-05-10T20:31:19.816Z,11.22
2019-05-10T20:33:49.876Z,13.40
2019-05-10T20:36:20.100Z,18.27
2019-05-10T20:38:50.368Z,21.77
2019-05-10T20:41:20.698Z,21.73
2019-05-10T20:43:50.833Z,21.65
2019-05-10T20:46:21.112Z,20.17
2019-05-10T20:48:51.139Z,19.42
2019-05-10T20:51:21.407Z,21.17
2019-05-10T20:53:51.741Z,19.27
2019-05-10T20:56:22.036Z,17.48
2019-05-10T20:58:52.470Z,13.90
2019-05-10T21:01:22.476Z,15.30
2019-05-10T21:03:59.057Z,14.20
2019-05-10T21:06:35.391Z,15.58
2019-05-10T21:09:09.045Z,14.98
2019-05-10T21:11:39.078Z,14.38
2019-05-10T21:14:10.894Z,14.20
2019-05-10T21:16:44.194Z,13.75
2019-05-10T21:19:19.677Z,12.88
2019-05-10T21:21:49.255Z,13.10
2019-05-10T21:24:21.344Z,13.25
2019-05-10T21:26:51.223Z,14.55
2019-05-10T21:29:31.190Z,13.40
2019-05-10T21:32:05.072Z,15.20
2019-05-10T21:34:35.665Z,13.53
2019-05-10T21:37:07.337Z,17.32
2019-05-10T21:39:40.372Z,33.23
2019-05-10T21:42:16.235Z,32.20
2019-05-10T21:44:46.474Z,29.70
2019-05-10T21:47:16.402Z,24.55
2019-05-10T21:49:48.425Z,28.42
2019-05-10T21:52:22.263Z,27.48
2019-05-10T21:54:53.867Z,25.00
2019-05-10T21:57:24.060Z,25.00
2019-05-10T21:59:56.932Z,24.37
2019-05-10T22:02:27.502Z,22.30
2019-05-10T22:05:00.395Z,22.45
2019-05-10T22:07:30.827Z,19.55
2019-05-10T22:10:05.839Z,17.42
2019-05-10T22:12:37.135Z,17.07
2019-05-10T22:15:11.721Z,16.60
2019-05-10T22:20:35.021Z,16.60
2019-05-10T22:23:08.217Z,15.20
2019-05-10T22:25:42.785Z,15.20
2019-05-10T22:28:15.512Z,17.10
2019-05-10T22:30:46.949Z,21.90
2019-05-10T22:33:22.223Z,15.55
2019-05-10T22:35:56.213Z,14.55
2019-05-10T22:38:33.618Z,17.57
2019-05-10T22:41:07.531Z,15.70
2019-05-10T22:43:40.291Z,14.23
2019-05-10T22:46:17.977Z,15.30
2019-05-10T22:48:52.953Z,14.80
2019-05-10T22:51:25.994Z,14.38
2019-05-10T22:53:59.878Z,16.10
2019-05-10T22:56:27.936Z,17.82
2019-05-10T22:59:01.430Z,16.25
2019-05-10T23:01:39.450Z,16.53
2019-05-10T23:04:09.729Z,14.53
2019-05-10T23:06:48.447Z,16.75
2019-05-10T23:09:25.348Z,16.07
2019-05-10T23:11:55.719Z,16.87
2019-05-10T23:14:32.161Z,19.45
2019-05-10T23:17:02.591Z,20.88
2019-05-10T23:19:32.847Z,21.20
2019-05-10T23:22:08.039Z,22.22
2019-05-10T23:24:40.920Z,23.32
2019-05-10T23:27:14.900Z,23.25
2019-05-10T23:29:46.085Z,22.45
2019-05-10T23:32:19.033Z,21.35
2019-05-10T23:34:55.934Z,30.48
2019-05-10T23:37:25.926Z,24.02
2019-05-10T23:39:55.916Z,27.52
2019-05-10T23:42:29.695Z,23.47
2019-05-10T23:44:59.625Z,20.43
2019-05-10T23:47:29.863Z,18.15
2019-05-10T23:50:01.247Z,18.40
2019-05-10T23:52:38.277Z,19.50
2019-05-10T23:55:24.561Z,17.85
2019-05-10T23:57:59.157Z,14.68
